sensor_id;sensor_type;location;lat;lon;timestamp;temperature;humidity
22635;DHT22;11484;50.858;4.384;2023-04-01T00:00:25;11.10;99.90
22635;DHT22;11484;50.858;4.384;2023-04-01T00:02:51;11.20;99.90
22635;DHT22;11484;50.858;4.384;2023-04-01T00:05:17;11.20;99.90
22635;DHT22;11484;50.858;4.384;2023-04-01T00:07:43;11.20;99.90
22635;DHT22;11484;50.858;4.384;2023-04-01T00:10:11;11.10;99.90
22635;DHT22;11484;50.858;4.384;2023-04-01T00:12:38;11.10;99.90
22635;DHT22;11484;50.858;4.384;2023-04-01T00:15:05;11.10;99.90
22635;DHT22;11484;50.858;4.384;2023-04-01T00:17:32;11.10;99.90
22635;DHT22;11484;50.858;4.384;2023-04-01T00:19:57;11.20;99.90
22635;DHT22;11484;50.858;4.384;2023-04-01T00:22:24;11.10;99.90
22635;DHT22;11484;50.858;4.384;2023-04-01T00:24:50;11.10;99.90
22635;DHT22;11484;50.858;4.384;2023-04-01T00:27:16;11.10;99.90
22635;DHT22;11484;50.858;4.384;2023-04-01T00:29:43;11.10;99.90
22635;DHT22;11484;50.858;4.384;2023-04-01T00:32:09;11.10;99.90
22635;DHT22;11484;50.858;4.384;2023-04-01T00:34:35;11.10;99.90
22635;DHT22;11484;50.858;4.384;2023-04-01T00:37:02;11.10;99.90
22635;DHT22;11484;50.858;4.384;2023-04-01T00:39:31;11.10;99.90
22635;DHT22;11484;50.858;4.384;2023-04-01T00:41:58;11.10;99.90
22635;DHT22;11484;50.858;4.384;2023-04-01T00:44:30;11.10;99.90
22635;DHT22;11484;50.858;4.384;2023-04-01T00:46:56;11.10;99.90
22635;DHT22;11484;50.858;4.384;2023-04-01T00:49:25;11.20;99.90
22635;DHT22;11484;50.858;4.384;2023-04-01T00:51:54;11.20;99.90
22635;DHT22;11484;50.858;4.384;2023-04-01T00:54:22;11.30;99.90
22635;DHT22;11484;50.858;4.384;2023-04-01T00:56:56;11.30;99.90
22635;DHT22;11484;50.858;4.384;2023-04-01T00:59:26;11.30;99.90
22635;DHT22;11484;50.858;4.384;2023-04-01T01:01:52;11.30;99.90
22635;DHT22;11484;50.858;4.384;2023-04-01T01:04:30;11.30;99.90
22635;DHT22;11484;50.858;4.384;2023-04-01T01:10:19;11.30;99.90
22635;DHT22;11484;50.858;4.384;2023-04-01T01:13:11;11.30;99.90
22635;DHT22;11484;50.858;4.384;2023-04-01T01:21:31;11.30;99.90
22635;DHT22;11484;50.858;4.384;2023-04-01T01:37:31;11.20;99.90
22635;DHT22;11484;50.858;4.384;2023-04-01T01:40:04;11.20;99.90
22635;DHT22;11484;50.858;4.384;2023-04-01T01:42:33;11.10;99.90
22635;DHT22;11484;50.858;4.384;2023-04-01T01:45:01;11.10;99.90
22635;DHT22;11484;50.858;4.384;2023-04-01T01:47:31;11.20;99.90
22635;DHT22;11484;50.858;4.384;2023-04-01T01:50:00;11.20;99.90
22635;DHT22;11484;50.858;4.384;2023-04-01T01:52:29;11.30;99.90
22635;DHT22;11484;50.858;4.384;2023-04-01T01:54:57;11.30;99.90
22635;DHT22;11484;50.858;4.384;2023-04-01T01:57:34;11.20;99.90
22635;DHT22;11484;50.858;4.384;2023-04-01T02:00:07;11.10;99.90
22635;DHT22;11484;50.858;4.384;2023-04-01T02:02:40;11.20;99.90
22635;DHT22;11484;50.858;4.384;2023-04-01T02:05:10;11.20;99.90
22635;DHT22;11484;50.858;4.384;2023-04-01T02:07:37;11.10;99.90
22635;DHT22;11484;50.858;4.384;2023-04-01T02:10:07;11.10;99.90
22635;DHT22;11484;50.858;4.384;2023-04-01T02:12:35;11.10;99.90
22635;DHT22;11484;50.858;4.384;2023-04-01T02:15:08;11.10;99.90
22635;DHT22;11484;50.858;4.384;2023-04-01T02:17:39;11.10;99.90
22635;DHT22;11484;50.858;4.384;2023-04-01T02:20:15;11.00;99.90
22635;DHT22;11484;50.858;4.384;2023-04-01T02:22:46;10.90;99.90
22635;DHT22;11484;50.858;4.384;2023-04-01T02:25:18;10.90;99.90
22635;DHT22;11484;50.858;4.384;2023-04-01T02:27:45;10.90;99.90
22635;DHT22;11484;50.858;4.384;2023-04-01T02:30:16;10.90;99.90
22635;DHT22;11484;50.858;4.384;2023-04-01T02:32:43;10.80;99.90
22635;DHT22;11484;50.858;4.384;2023-04-01T02:35:11;10.90;99.90
22635;DHT22;11484;50.858;4.384;2023-04-01T02:37:38;10.90;99.90
22635;DHT22;11484;50.858;4.384;2023-04-01T02:40:08;10.90;99.90
22635;DHT22;11484;50.858;4.384;2023-04-01T02:42:35;10.90;99.90
22635;DHT22;11484;50.858;4.384;2023-04-01T02:45:01;10.80;99.90
22635;DHT22;11484;50.858;4.384;2023-04-01T02:47:27;10.80;99.90
22635;DHT22;11484;50.858;4.384;2023-04-01T02:49:52;10.80;99.90
22635;DHT22;11484;50.858;4.384;2023-04-01T02:52:24;10.80;99.90
22635;DHT22;11484;50.858;4.384;2023-04-01T02:54:50;10.80;99.90
22635;DHT22;11484;50.858;4.384;2023-04-01T02:57:16;10.80;99.90
22635;DHT22;11484;50.858;4.384;2023-04-01T02:59:42;10.90;99.90
22635;DHT22;11484;50.858;4.384;2023-04-01T03:02:07;10.90;99.90
22635;DHT22;11484;50.858;4.384;2023-04-01T03:04:33;10.90;99.90
22635;DHT22;11484;50.858;4.384;2023-04-01T03:06:59;10.90;99.90
22635;DHT22;11484;50.858;4.384;2023-04-01T03:09:25;10.90;99.90
22635;DHT22;11484;50.858;4.384;2023-04-01T03:11:50;10.90;99.90
22635;DHT22;11484;50.858;4.384;2023-04-01T03:14:16;10.90;99.90
22635;DHT22;11484;50.858;4.384;2023-04-01T03:16:42;10.90;99.90
22635;DHT22;11484;50.858;4.384;2023-04-01T03:19:07;10.90;99.90
22635;DHT22;11484;50.858;4.384;2023-04-01T03:21:33;10.90;99.90
22635;DHT22;11484;50.858;4.384;2023-04-01T03:23:59;10.90;99.90
22635;DHT22;11484;50.858;4.384;2023-04-01T03:26:25;10.90;99.90
22635;DHT22;11484;50.858;4.384;2023-04-01T03:28:53;10.90;99.90
22635;DHT22;11484;50.858;4.384;2023-04-01T03:31:18;10.90;99.90
22635;DHT22;11484;50.858;4.384;2023-04-01T03:33:44;10.90;99.90
22635;DHT22;11484;50.858;4.384;2023-04-01T03:36:10;10.90;99.90
22635;DHT22;11484;50.858;4.384;2023-04-01T03:38:39;10.90;99.90
22635;DHT22;11484;50.858;4.384;2023-04-01T03:41:05;10.90;99.90
22635;DHT22;11484;50.858;4.384;2023-04-01T03:43:32;10.80;99.90
22635;DHT22;11484;50.858;4.384;2023-04-01T03:45:57;10.80;99.90
22635;DHT22;11484;50.858;4.384;2023-04-01T03:48:24;10.90;99.90
22635;DHT22;11484;50.858;4.384;2023-04-01T03:50:51;10.90;99.90
22635;DHT22;11484;50.858;4.384;2023-04-01T03:53:17;10.80;99.90
22635;DHT22;11484;50.858;4.384;2023-04-01T03:55:42;10.90;99.90
22635;DHT22;11484;50.858;4.384;2023-04-01T03:58:08;10.90;99.90
22635;DHT22;11484;50.858;4.384;2023-04-01T04:00:35;10.90;99.90
22635;DHT22;11484;50.858;4.384;2023-04-01T04:03:01;10.90;99.90
22635;DHT22;11484;50.858;4.384;2023-04-01T04:05:27;10.90;99.90
22635;DHT22;11484;50.858;4.384;2023-04-01T04:07:53;10.90;99.90
22635;DHT22;11484;50.858;4.384;2023-04-01T04:10:19;10.80;99.90
22635;DHT22;11484;50.858;4.384;2023-04-01T04:12:45;10.80;99.90
22635;DHT22;11484;50.858;4.384;2023-04-01T04:15:12;10.80;99.90
22635;DHT22;11484;50.858;4.384;2023-04-01T04:17:37;10.80;99.90
22635;DHT22;11484;50.858;4.384;2023-04-01T04:20:03;10.80;99.90
22635;DHT22;11484;50.858;4.384;2023-04-01T04:22:29;10.80;99.90
22635;DHT22;11484;50.858;4.384;2023-04-01T04:24:55;10.80;99.90
22635;DHT22;11484;50.858;4.384;2023-04-01T04:27:21;10.80;99.90
22635;DHT22;11484;50.858;4.384;2023-04-01T04:29:46;10.80;99.90
22635;DHT22;11484;50.858;4.384;2023-04-01T04:32:12;10.80;99.90
22635;DHT22;11484;50.858;4.384;2023-04-01T04:34:38;10.80;99.90
22635;DHT22;11484;50.858;4.384;2023-04-01T04:37:03;10.80;99.90
22635;DHT22;11484;50.858;4.384;2023-04-01T04:39:29;10.70;99.90
22635;DHT22;11484;50.858;4.384;2023-04-01T04:41:55;10.70;99.90
22635;DHT22;11484;50.858;4.384;2023-04-01T04:44:21;10.60;99.90
22635;DHT22;11484;50.858;4.384;2023-04-01T04:46:47;10.70;99.90
22635;DHT22;11484;50.858;4.384;2023-04-01T04:49:13;10.70;99.90
22635;DHT22;11484;50.858;4.384;2023-04-01T04:51:39;10.70;99.90
22635;DHT22;11484;50.858;4.384;2023-04-01T04:54:05;10.70;99.90
22635;DHT22;11484;50.858;4.384;2023-04-01T04:56:31;10.70;99.90
22635;DHT22;11484;50.858;4.384;2023-04-01T04:58:58;10.70;99.90
22635;DHT22;11484;50.858;4.384;2023-04-01T05:01:24;10.70;99.90
22635;DHT22;11484;50.858;4.384;2023-04-01T05:03:50;10.70;99.90
22635;DHT22;11484;50.858;4.384;2023-04-01T05:06:17;10.60;99.90
22635;DHT22;11484;50.858;4.384;2023-04-01T05:08:44;10.70;99.90
22635;DHT22;11484;50.858;4.384;2023-04-01T05:11:18;10.70;99.90
22635;DHT22;11484;50.858;4.384;2023-04-01T05:13:44;10.70;99.90
22635;DHT22;11484;50.858;4.384;2023-04-01T05:16:15;10.80;99.90
22635;DHT22;11484;50.858;4.384;2023-04-01T05:18:41;10.80;99.90
22635;DHT22;11484;50.858;4.384;2023-04-01T05:21:08;10.70;99.90
22635;DHT22;11484;50.858;4.384;2023-04-01T05:23:35;10.70;99.90
22635;DHT22;11484;50.858;4.384;2023-04-01T05:26:12;10.70;99.90
22635;DHT22;11484;50.858;4.384;2023-04-01T05:28:39;10.70;99.90
22635;DHT22;11484;50.858;4.384;2023-04-01T05:31:05;10.60;99.90
22635;DHT22;11484;50.858;4.384;2023-04-01T05:33:32;10.60;99.90
22635;DHT22;11484;50.858;4.384;2023-04-01T05:36:06;10.60;99.90
22635;DHT22;11484;50.858;4.384;2023-04-01T05:38:32;10.60;99.90
22635;DHT22;11484;50.858;4.384;2023-04-01T05:41:02;10.60;99.90
22635;DHT22;11484;50.858;4.384;2023-04-01T05:43:28;10.60;99.90
22635;DHT22;11484;50.858;4.384;2023-04-01T05:45:55;10.50;99.90
22635;DHT22;11484;50.858;4.384;2023-04-01T05:48:21;10.50;99.90
22635;DHT22;11484;50.858;4.384;2023-04-01T05:50:46;10.50;99.90
22635;DHT22;11484;50.858;4.384;2023-04-01T05:53:12;10.50;99.90
22635;DHT22;11484;50.858;4.384;2023-04-01T05:55:38;10.50;99.90
22635;DHT22;11484;50.858;4.384;2023-04-01T05:58:03;10.50;99.90
22635;DHT22;11484;50.858;4.384;2023-04-01T06:00:29;10.60;99.90
22635;DHT22;11484;50.858;4.384;2023-04-01T06:02:58;10.50;99.90
22635;DHT22;11484;50.858;4.384;2023-04-01T06:05:27;10.60;99.90
22635;DHT22;11484;50.858;4.384;2023-04-01T06:07:58;10.70;99.90
22635;DHT22;11484;50.858;4.384;2023-04-01T06:10:41;10.70;99.90
22635;DHT22;11484;50.858;4.384;2023-04-01T06:18:42;10.70;99.90
22635;DHT22;11484;50.858;4.384;2023-04-01T06:27:48;10.70;99.90
22635;DHT22;11484;50.858;4.384;2023-04-01T06:30:02;10.70;99.90
22635;DHT22;11484;50.858;4.384;2023-04-01T06:36:00;10.70;99.90
22635;DHT22;11484;50.858;4.384;2023-04-01T06:41:26;10.60;99.90
22635;DHT22;11484;50.858;4.384;2023-04-01T06:44:12;10.60;99.90
22635;DHT22;11484;50.858;4.384;2023-04-01T06:46:47;10.70;99.90
22635;DHT22;11484;50.858;4.384;2023-04-01T06:52:00;10.70;99.90
22635;DHT22;11484;50.858;4.384;2023-04-01T06:54:31;10.80;99.90
22635;DHT22;11484;50.858;4.384;2023-04-01T06:57:23;10.80;99.90
22635;DHT22;11484;50.858;4.384;2023-04-01T06:59:51;10.90;99.90
22635;DHT22;11484;50.858;4.384;2023-04-01T07:02:29;10.90;99.90
22635;DHT22;11484;50.858;4.384;2023-04-01T07:04:58;10.90;99.90
22635;DHT22;11484;50.858;4.384;2023-04-01T07:07:42;10.90;99.90
22635;DHT22;11484;50.858;4.384;2023-04-01T07:10:16;10.90;99.90
22635;DHT22;11484;50.858;4.384;2023-04-01T07:12:54;10.90;99.90
22635;DHT22;11484;50.858;4.384;2023-04-01T07:18:05;11.00;99.90
22635;DHT22;11484;50.858;4.384;2023-04-01T07:20:36;11.10;99.90
22635;DHT22;11484;50.858;4.384;2023-04-01T07:23:05;11.00;99.90
22635;DHT22;11484;50.858;4.384;2023-04-01T07:25:45;10.90;99.90
22635;DHT22;11484;50.858;4.384;2023-04-01T07:28:15;11.00;99.90
22635;DHT22;11484;50.858;4.384;2023-04-01T07:33:43;11.00;99.90
22635;DHT22;11484;50.858;4.384;2023-04-01T07:36:19;11.00;99.90
22635;DHT22;11484;50.858;4.384;2023-04-01T07:39:06;11.10;99.90
22635;DHT22;11484;50.858;4.384;2023-04-01T07:41:56;11.10;99.90
22635;DHT22;11484;50.858;4.384;2023-04-01T07:50:28;11.10;99.90
22635;DHT22;11484;50.858;4.384;2023-04-01T08:06:11;11.20;99.90
22635;DHT22;11484;50.858;4.384;2023-04-01T08:11:54;11.20;99.90
22635;DHT22;11484;50.858;4.384;2023-04-01T08:20:09;11.30;99.90
22635;DHT22;11484;50.858;4.384;2023-04-01T08:22:41;11.20;99.90
22635;DHT22;11484;50.858;4.384;2023-04-01T08:25:14;11.30;99.90
22635;DHT22;11484;50.858;4.384;2023-04-01T08:27:45;11.30;99.90
22635;DHT22;11484;50.858;4.384;2023-04-01T08:30:27;11.30;99.90
22635;DHT22;11484;50.858;4.384;2023-04-01T08:32:58;11.30;99.90
22635;DHT22;11484;50.858;4.384;2023-04-01T08:35:43;11.30;99.90
22635;DHT22;11484;50.858;4.384;2023-04-01T08:38:19;11.30;99.90
22635;DHT22;11484;50.858;4.384;2023-04-01T08:41:00;11.20;99.90
22635;DHT22;11484;50.858;4.384;2023-04-01T08:46:32;11.40;99.90
22635;DHT22;11484;50.858;4.384;2023-04-01T08:59:50;11.50;99.90
22635;DHT22;11484;50.858;4.384;2023-04-01T09:02:47;11.40;99.90
22635;DHT22;11484;50.858;4.384;2023-04-01T09:05:21;11.30;99.90
22635;DHT22;11484;50.858;4.384;2023-04-01T09:07:59;11.40;99.90
22635;DHT22;11484;50.858;4.384;2023-04-01T09:24:31;11.50;99.90
22635;DHT22;11484;50.858;4.384;2023-04-01T09:27:14;11.60;99.90
22635;DHT22;11484;50.858;4.384;2023-04-01T09:30:25;11.50;99.90
22635;DHT22;11484;50.858;4.384;2023-04-01T09:38:57;11.70;99.90
22635;DHT22;11484;50.858;4.384;2023-04-01T09:52:44;12.00;99.90
22635;DHT22;11484;50.858;4.384;2023-04-01T10:27:20;12.20;99.90
22635;DHT22;11484;50.858;4.384;2023-04-01T10:30:13;12.20;99.90
22635;DHT22;11484;50.858;4.384;2023-04-01T10:44:18;12.60;99.90
22635;DHT22;11484;50.858;4.384;2023-04-01T10:49:44;12.80;99.90
22635;DHT22;11484;50.858;4.384;2023-04-01T10:55:54;12.80;99.90
22635;DHT22;11484;50.858;4.384;2023-04-01T11:15:05;12.70;99.90
22635;DHT22;11484;50.858;4.384;2023-04-01T11:20:35;12.80;99.90
22635;DHT22;11484;50.858;4.384;2023-04-01T11:31:29;12.60;99.90
22635;DHT22;11484;50.858;4.384;2023-04-01T11:37:10;12.80;99.90
22635;DHT22;11484;50.858;4.384;2023-04-01T11:45:01;12.90;99.90
22635;DHT22;11484;50.858;4.384;2023-04-01T11:58:45;12.70;99.90
22635;DHT22;11484;50.858;4.384;2023-04-01T12:09:52;13.00;99.90
22635;DHT22;11484;50.858;4.384;2023-04-01T12:12:27;13.00;99.90
22635;DHT22;11484;50.858;4.384;2023-04-01T12:15:18;13.00;99.90
22635;DHT22;11484;50.858;4.384;2023-04-01T12:17:58;12.90;99.90
22635;DHT22;11484;50.858;4.384;2023-04-01T12:34:25;12.60;99.90
22635;DHT22;11484;50.858;4.384;2023-04-01T12:42:59;12.50;99.90
22635;DHT22;11484;50.858;4.384;2023-04-01T12:45:32;12.30;99.90
22635;DHT22;11484;50.858;4.384;2023-04-01T12:59:47;12.20;99.90
22635;DHT22;11484;50.858;4.384;2023-04-01T13:07:57;12.20;99.90
22635;DHT22;11484;50.858;4.384;2023-04-01T13:16:19;12.20;99.90
22635;DHT22;11484;50.858;4.384;2023-04-01T13:19:19;12.20;99.90
22635;DHT22;11484;50.858;4.384;2023-04-01T13:21:50;12.20;99.90
22635;DHT22;11484;50.858;4.384;2023-04-01T13:24:38;12.10;99.90
22635;DHT22;11484;50.858;4.384;2023-04-01T13:27:14;12.20;99.90
22635;DHT22;11484;50.858;4.384;2023-04-01T13:32:59;12.20;99.90
22635;DHT22;11484;50.858;4.384;2023-04-01T13:43:28;11.90;99.90
22635;DHT22;11484;50.858;4.384;2023-04-01T13:54:12;11.90;99.90
22635;DHT22;11484;50.858;4.384;2023-04-01T14:00:02;12.20;99.90
22635;DHT22;11484;50.858;4.384;2023-04-01T14:08:42;12.30;99.90
22635;DHT22;11484;50.858;4.384;2023-04-01T14:14:26;12.30;99.90
22635;DHT22;11484;50.858;4.384;2023-04-01T14:17:06;12.40;99.90
22635;DHT22;11484;50.858;4.384;2023-04-01T14:22:39;12.50;99.90
22635;DHT22;11484;50.858;4.384;2023-04-01T14:36:48;12.50;99.90
22635;DHT22;11484;50.858;4.384;2023-04-01T14:39:29;12.40;99.90
22635;DHT22;11484;50.858;4.384;2023-04-01T14:50:45;12.40;99.90
22635;DHT22;11484;50.858;4.384;2023-04-01T14:53:35;12.40;99.90
22635;DHT22;11484;50.858;4.384;2023-04-01T14:56:04;12.40;99.90
22635;DHT22;11484;50.858;4.384;2023-04-01T14:58:47;12.30;99.90
22635;DHT22;11484;50.858;4.384;2023-04-01T15:12:50;13.00;99.90
22635;DHT22;11484;50.858;4.384;2023-04-01T15:20:56;13.50;99.90
22635;DHT22;11484;50.858;4.384;2023-04-01T15:23:34;13.40;99.90
22635;DHT22;11484;50.858;4.384;2023-04-01T15:28:59;13.00;99.90
22635;DHT22;11484;50.858;4.384;2023-04-01T15:37:27;12.50;99.90
22635;DHT22;11484;50.858;4.384;2023-04-01T15:45:05;12.30;99.90
22635;DHT22;11484;50.858;4.384;2023-04-01T15:47:46;12.30;99.90
22635;DHT22;11484;50.858;4.384;2023-04-01T15:50:33;12.30;99.90
22635;DHT22;11484;50.858;4.384;2023-04-01T16:01:17;11.80;99.90
22635;DHT22;11484;50.858;4.384;2023-04-01T16:13:03;11.60;99.90
22635;DHT22;11484;50.858;4.384;2023-04-01T16:15:14;11.50;99.90
22635;DHT22;11484;50.858;4.384;2023-04-01T16:20:23;11.40;99.90
22635;DHT22;11484;50.858;4.384;2023-04-01T16:23:13;11.40;99.90
22635;DHT22;11484;50.858;4.384;2023-04-01T16:31:52;11.50;99.90
22635;DHT22;11484;50.858;4.384;2023-04-01T16:34:44;11.50;99.90
22635;DHT22;11484;50.858;4.384;2023-04-01T16:48:45;11.40;99.90
22635;DHT22;11484;50.858;4.384;2023-04-01T16:51:16;11.50;99.90
22635;DHT22;11484;50.858;4.384;2023-04-01T16:56:22;11.40;99.90
22635;DHT22;11484;50.858;4.384;2023-04-01T17:01:53;11.30;99.90
22635;DHT22;11484;50.858;4.384;2023-04-01T17:10:22;11.20;99.90
22635;DHT22;11484;50.858;4.384;2023-04-01T17:13:25;11.20;99.90
22635;DHT22;11484;50.858;4.384;2023-04-01T17:15:59;11.20;99.90
22635;DHT22;11484;50.858;4.384;2023-04-01T17:19:19;11.20;99.90
22635;DHT22;11484;50.858;4.384;2023-04-01T17:21:49;11.30;99.90
22635;DHT22;11484;50.858;4.384;2023-04-01T17:24:46;11.30;99.90
22635;DHT22;11484;50.858;4.384;2023-04-01T17:27:26;11.20;99.90
22635;DHT22;11484;50.858;4.384;2023-04-01T17:36:23;11.30;99.90
22635;DHT22;11484;50.858;4.384;2023-04-01T17:43:59;11.30;99.90
22635;DHT22;11484;50.858;4.384;2023-04-01T17:46:56;11.30;99.90
22635;DHT22;11484;50.858;4.384;2023-04-01T18:03:36;11.20;99.90
22635;DHT22;11484;50.858;4.384;2023-04-01T18:06:27;11.20;99.90
22635;DHT22;11484;50.858;4.384;2023-04-01T18:11:53;11.20;99.90
22635;DHT22;11484;50.858;4.384;2023-04-01T18:22:45;11.20;99.90
22635;DHT22;11484;50.858;4.384;2023-04-01T18:33:29;11.00;99.90
22635;DHT22;11484;50.858;4.384;2023-04-01T18:36:21;11.00;99.90
22635;DHT22;11484;50.858;4.384;2023-04-01T18:44:29;11.00;99.90
22635;DHT22;11484;50.858;4.384;2023-04-01T18:52:45;10.90;99.90
22635;DHT22;11484;50.858;4.384;2023-04-01T18:55:33;10.90;99.90
22635;DHT22;11484;50.858;4.384;2023-04-01T18:58:33;10.90;99.90
22635;DHT22;11484;50.858;4.384;2023-04-01T19:03:48;10.90;99.90
22635;DHT22;11484;50.858;4.384;2023-04-01T19:06:42;10.90;99.90
22635;DHT22;11484;50.858;4.384;2023-04-01T19:09:23;10.90;99.90
22635;DHT22;11484;50.858;4.384;2023-04-01T19:14:37;10.90;99.90
22635;DHT22;11484;50.858;4.384;2023-04-01T19:22:42;10.80;99.90
22635;DHT22;11484;50.858;4.384;2023-04-01T19:36:03;10.70;99.90
22635;DHT22;11484;50.858;4.384;2023-04-01T19:39:02;10.70;99.90
22635;DHT22;11484;50.858;4.384;2023-04-01T19:50:03;10.80;99.90
22635;DHT22;11484;50.858;4.384;2023-04-01T19:52:37;10.70;99.90
22635;DHT22;11484;50.858;4.384;2023-04-01T19:58:42;10.80;99.90
22635;DHT22;11484;50.858;4.384;2023-04-01T20:01:36;10.70;99.90
22635;DHT22;11484;50.858;4.384;2023-04-01T20:04:08;10.70;99.90
22635;DHT22;11484;50.858;4.384;2023-04-01T20:12:10;10.70;99.90
22635;DHT22;11484;50.858;4.384;2023-04-01T20:15:00;10.70;99.90
22635;DHT22;11484;50.858;4.384;2023-04-01T20:20:21;10.80;99.90
22635;DHT22;11484;50.858;4.384;2023-04-01T20:25:55;10.80;99.90
22635;DHT22;11484;50.858;4.384;2023-04-01T20:28:30;10.80;99.90
22635;DHT22;11484;50.858;4.384;2023-04-01T20:31:42;10.60;99.90
22635;DHT22;11484;50.858;4.384;2023-04-01T20:34:26;10.70;99.90
22635;DHT22;11484;50.858;4.384;2023-04-01T20:45:42;10.80;99.90
22635;DHT22;11484;50.858;4.384;2023-04-01T20:51:22;10.80;99.90
22635;DHT22;11484;50.858;4.384;2023-04-01T21:02:46;10.90;99.90
22635;DHT22;11484;50.858;4.384;2023-04-01T21:05:36;10.90;99.90
22635;DHT22;11484;50.858;4.384;2023-04-01T21:11:16;10.90;99.90
22635;DHT22;11484;50.858;4.384;2023-04-01T21:14:24;10.90;99.90
22635;DHT22;11484;50.858;4.384;2023-04-01T21:22:41;10.90;99.90
22635;DHT22;11484;50.858;4.384;2023-04-01T21:37:00;11.00;99.90
22635;DHT22;11484;50.858;4.384;2023-04-01T21:39:41;11.00;99.90
22635;DHT22;11484;50.858;4.384;2023-04-01T21:42:38;11.00;99.90
22635;DHT22;11484;50.858;4.384;2023-04-01T21:48:17;11.10;99.90
22635;DHT22;11484;50.858;4.384;2023-04-01T22:13:23;11.10;99.90
22635;DHT22;11484;50.858;4.384;2023-04-01T22:21:20;11.30;99.90
22635;DHT22;11484;50.858;4.384;2023-04-01T22:23:54;11.30;99.90
22635;DHT22;11484;50.858;4.384;2023-04-01T22:26:27;11.20;99.90
22635;DHT22;11484;50.858;4.384;2023-04-01T22:29:17;11.10;99.90
22635;DHT22;11484;50.858;4.384;2023-04-01T22:35:00;10.90;99.90
22635;DHT22;11484;50.858;4.384;2023-04-01T22:37:58;10.90;99.90
22635;DHT22;11484;50.858;4.384;2023-04-01T22:40:34;10.90;99.90
22635;DHT22;11484;50.858;4.384;2023-04-01T22:43:10;10.90;99.90
22635;DHT22;11484;50.858;4.384;2023-04-01T22:48:20;10.90;99.90
22635;DHT22;11484;50.858;4.384;2023-04-01T22:54:02;10.80;99.90
22635;DHT22;11484;50.858;4.384;2023-04-01T22:56:37;10.70;99.90
22635;DHT22;11484;50.858;4.384;2023-04-01T22:59:24;10.70;99.90
22635;DHT22;11484;50.858;4.384;2023-04-01T23:01:57;10.70;99.90
22635;DHT22;11484;50.858;4.384;2023-04-01T23:04:31;10.70;99.90
22635;DHT22;11484;50.858;4.384;2023-04-01T23:07:04;10.70;99.90
22635;DHT22;11484;50.858;4.384;2023-04-01T23:09:38;10.80;99.90
22635;DHT22;11484;50.858;4.384;2023-04-01T23:12:08;10.90;99.90
22635;DHT22;11484;50.858;4.384;2023-04-01T23:33:23;10.60;99.90
22635;DHT22;11484;50.858;4.384;2023-04-01T23:38:20;10.50;99.90
22635;DHT22;11484;50.858;4.384;2023-04-01T23:40:50;10.50;99.90
22635;DHT22;11484;50.858;4.384;2023-04-01T23:43:25;10.50;99.90
22635;DHT22;11484;50.858;4.384;2023-04-01T23:45:56;10.50;99.90
22635;DHT22;11484;50.858;4.384;2023-04-01T23:48:28;10.40;99.90
22635;DHT22;11484;50.858;4.384;2023-04-01T23:50:56;10.40;99.90
22635;DHT22;11484;50.858;4.384;2023-04-01T23:53:24;10.40;99.90
22635;DHT22;11484;50.858;4.384;2023-04-01T23:55:51;10.30;99.90
22635;DHT22;11484;50.858;4.384;2023-04-01T23:58:23;10.30;99.90
